Gleed, Washington
Current Conditions -  °F | °C
As of 3:53 PM on Thursday 18 Dec 2014 (Local Time) from KYKM Reporting Station
Overcast Overcast  
Wind Chill: 41°   Ceiling: 1300
Heat Index: 41°   Visibility: 7mi
Dew Point: 36°   Wind: 3mph
Humidity: 82%   Direction: 160°SSE
Pressure: 29.96"   Gusts: NA
Location:  46.6584°N, 120.612°W
Report Text: KYKM 182353Z 16003KT 7SM OVC013 05/02 A2996 RMK AO2 SLP151 60000 T00500022 10061 20050 56007
Loading
Personal Weather Stations






























Interactive Weather Map New forecast layout! Learn more

10-Day Weather Forecast

Advertisements
Track Severe Weather on mobile